createdAt,value
2019-03-08T00:00:55.856Z,97317.77
2019-03-08T00:03:27.884Z,97311.54
2019-03-08T00:05:59.871Z,97309.55
2019-03-08T00:08:31.885Z,97303.76
2019-03-08T00:11:04.145Z,97310.89
2019-03-08T00:13:36.165Z,97317.67
2019-03-08T00:16:08.143Z,97318.22
2019-03-08T00:18:40.158Z,97317.75
2019-03-08T00:21:12.165Z,97321.48
2019-03-08T00:23:44.166Z,97334.70
2019-03-08T00:26:16.130Z,97332.72
2019-03-08T00:28:48.162Z,97345.58
2019-03-08T00:31:20.151Z,97347.80
2019-03-08T00:33:52.170Z,97354.19
2019-03-08T00:36:24.619Z,97357.61
2019-03-08T00:38:56.591Z,97364.05
2019-03-08T00:41:28.766Z,97369.16
2019-03-08T00:44:00.744Z,97370.20
2019-03-08T00:46:33.033Z,97369.73
2019-03-08T00:49:05.042Z,97369.31
2019-03-08T00:51:37.024Z,97382.62
2019-03-08T00:54:09.020Z,97378.80
2019-03-08T00:56:40.975Z,97381.81
2019-03-08T00:59:12.989Z,97376.07
2019-03-08T01:01:44.968Z,97379.02
2019-03-08T01:04:17.004Z,97373.16
2019-03-08T01:06:48.999Z,97379.23
2019-03-08T01:09:21.276Z,97368.20
2019-03-08T01:11:53.272Z,97367.51
2019-03-08T01:14:25.256Z,97376.48
2019-03-08T01:16:57.269Z,97370.91
2019-03-08T01:19:29.266Z,97374.52
2019-03-08T01:22:01.283Z,97370.70
2019-03-08T01:24:33.343Z,97376.58
2019-03-08T01:27:05.316Z,97381.91
2019-03-08T01:29:37.301Z,97384.72
2019-03-08T01:32:09.281Z,97377.55
2019-03-08T01:34:41.234Z,97376.45
2019-03-08T01:37:13.231Z,97373.59
2019-03-08T01:39:45.216Z,97373.09
2019-03-08T01:42:17.229Z,97371.66
2019-03-08T01:44:49.418Z,97376.19
2019-03-08T01:47:21.391Z,97381.47
2019-03-08T01:49:53.349Z,97381.54
2019-03-08T01:52:25.337Z,97377.56
2019-03-08T01:54:57.325Z,97374.86
2019-03-08T01:57:29.357Z,97375.74
2019-03-08T02:00:01.334Z,97384.43
2019-03-08T02:02:33.361Z,97381.05
2019-03-08T02:05:05.475Z,97380.22
2019-03-08T02:07:37.780Z,97380.42
2019-03-08T02:10:10.568Z,97384.75
2019-03-08T02:12:42.542Z,97388.79
2019-03-08T02:15:14.617Z,97387.87
2019-03-08T02:17:46.623Z,97382.81
2019-03-08T02:20:19.343Z,97396.60
2019-03-08T02:22:51.322Z,97395.95
2019-03-08T02:25:23.291Z,97401.86
2019-03-08T02:27:55.304Z,97402.47
2019-03-08T02:30:27.649Z,97407.03
2019-03-08T02:32:59.653Z,97398.72
2019-03-08T02:35:31.613Z,97401.10
2019-03-08T02:38:03.610Z,97408.08
2019-03-08T02:40:36.379Z,97408.31
2019-03-08T02:43:10.508Z,97409.69
2019-03-08T02:45:42.483Z,97417.04
2019-03-08T02:48:14.482Z,97413.02
2019-03-08T02:50:46.459Z,97417.00
2019-03-08T02:53:18.741Z,97410.56
2019-03-08T02:55:50.719Z,97408.39
2019-03-08T02:58:22.724Z,97409.02
2019-03-08T03:00:54.709Z,97414.48
2019-03-08T03:03:26.699Z,97412.65
2019-03-08T03:05:58.678Z,97409.39
2019-03-08T03:08:30.660Z,97422.91
2019-03-08T03:11:02.651Z,97415.49
2019-03-08T03:13:34.706Z,97430.85
2019-03-08T03:16:07.106Z,97420.12
2019-03-08T03:18:39.088Z,97426.33
2019-03-08T03:21:11.113Z,97427.26
2019-03-08T03:23:43.080Z,97423.56
2019-03-08T03:26:15.266Z,97429.12
2019-03-08T03:28:47.244Z,97424.20
2019-03-08T03:31:19.221Z,97425.66
2019-03-08T03:33:51.213Z,97422.64
2019-03-08T03:36:23.195Z,97430.88
2019-03-08T03:38:55.167Z,97438.45
2019-03-08T03:41:27.180Z,97440.02
2019-03-08T03:43:59.238Z,97434.30
2019-03-08T03:46:31.246Z,97432.78
2019-03-08T03:49:03.223Z,97443.91
2019-03-08T03:51:35.445Z,97448.01
2019-03-08T03:54:07.420Z,97451.53
2019-03-08T03:56:39.428Z,97456.57
2019-03-08T03:59:11.411Z,97465.48
2019-03-08T04:01:46.001Z,97452.47
2019-03-08T04:04:17.956Z,97461.22
2019-03-08T04:06:49.954Z,97471.35
2019-03-08T04:09:21.925Z,97471.11
2019-03-08T04:11:53.928Z,97481.08
2019-03-08T04:14:26.084Z,97490.52
2019-03-08T04:16:58.115Z,97495.31
2019-03-08T04:19:30.135Z,97509.14
2019-03-08T04:22:02.200Z,97508.86
2019-03-08T04:24:34.225Z,97509.37
2019-03-08T04:27:06.224Z,97525.17
2019-03-08T04:29:38.241Z,97526.73
2019-03-08T04:32:10.230Z,97532.27
2019-03-08T04:34:42.227Z,97526.84
2019-03-08T04:37:14.540Z,97538.64
2019-03-08T04:39:46.508Z,97538.81
2019-03-08T04:42:18.495Z,97539.58
2019-03-08T04:44:50.469Z,97545.59
2019-03-08T04:47:22.459Z,97547.12
2019-03-08T04:49:54.631Z,97549.88
2019-03-08T04:52:26.614Z,97560.17
2019-03-08T04:54:58.574Z,97553.01
2019-03-08T04:57:30.577Z,97564.00
2019-03-08T05:00:02.655Z,97564.77
2019-03-08T05:02:34.619Z,97570.66
2019-03-08T05:05:06.580Z,97581.12
2019-03-08T05:07:38.569Z,97592.73
2019-03-08T05:10:11.989Z,97599.63
2019-03-08T05:12:44.191Z,97604.02
2019-03-08T05:15:16.538Z,97610.97
2019-03-08T05:17:48.495Z,97612.64
2019-03-08T05:20:20.487Z,97609.39
2019-03-08T05:22:52.440Z,97615.25
2019-03-08T05:25:24.439Z,97624.19
2019-03-08T05:27:56.412Z,97629.38
2019-03-08T05:30:28.403Z,97631.41
2019-03-08T05:33:00.390Z,97637.00
2019-03-08T05:35:32.699Z,97631.48
2019-03-08T05:38:04.702Z,97628.11
2019-03-08T05:40:36.721Z,97618.30
2019-03-08T05:43:08.764Z,97628.71
2019-03-08T05:45:40.762Z,97632.80
2019-03-08T05:48:12.823Z,97636.28
2019-03-08T05:50:44.817Z,97647.48
2019-03-08T05:53:16.798Z,97644.96
2019-03-08T05:55:48.797Z,97653.56
2019-03-08T05:58:20.786Z,97649.95
2019-03-08T06:00:52.763Z,97650.30
2019-03-08T06:03:24.746Z,97656.49
2019-03-08T06:06:19.142Z,97656.85
2019-03-08T06:08:51.325Z,97663.09
2019-03-08T06:11:23.300Z,97672.39
2019-03-08T06:13:55.272Z,97670.55
2019-03-08T06:16:27.372Z,97682.25
2019-03-08T06:18:59.499Z,97673.81
2019-03-08T06:21:31.495Z,97685.07
2019-03-08T06:24:03.570Z,97689.46
2019-03-08T06:26:35.571Z,97689.95
2019-03-08T06:29:07.579Z,97689.67
2019-03-08T06:31:39.633Z,97687.61
2019-03-08T06:34:11.601Z,97694.45
2019-03-08T06:36:43.622Z,97693.90
2019-03-08T06:39:15.609Z,97698.50
2019-03-08T06:41:47.610Z,97703.19
2019-03-08T06:44:19.605Z,97707.59
2019-03-08T06:46:51.641Z,97712.37
2019-03-08T06:49:23.738Z,97712.48
2019-03-08T06:52:15.201Z,97714.05
2019-03-08T06:54:47.169Z,97715.52
2019-03-08T06:57:20.470Z,97723.96
2019-03-08T07:02:36.791Z,97740.16
2019-03-08T07:05:08.758Z,97745.35
2019-03-08T07:07:40.747Z,97757.39
2019-03-08T07:10:12.762Z,97758.25
2019-03-08T07:12:44.817Z,97759.55
2019-03-08T07:15:16.860Z,97763.11
2019-03-08T07:17:48.889Z,97769.91
2019-03-08T07:20:40.428Z,97763.62
2019-03-08T07:23:31.980Z,97763.03
2019-03-08T07:26:23.561Z,97767.08
2019-03-08T07:29:15.124Z,97779.45
2019-03-08T07:32:06.660Z,97770.14
2019-03-08T07:34:58.223Z,97776.63
2019-03-08T07:37:49.831Z,97791.63
2019-03-08T07:40:41.400Z,97790.16
2019-03-08T07:43:32.989Z,97804.17
2019-03-08T07:46:24.578Z,97801.80
2019-03-08T07:49:16.258Z,97815.63
2019-03-08T07:52:05.942Z,97820.13
2019-03-08T07:54:57.648Z,97830.05
2019-03-08T07:57:36.927Z,97839.53
2019-03-08T08:00:29.195Z,97841.30
2019-03-08T08:03:20.799Z,97840.59
2019-03-08T08:06:12.352Z,97848.08
2019-03-08T08:08:59.183Z,97848.27
2019-03-08T08:11:50.744Z,97855.20
2019-03-08T08:14:39.253Z,97861.50
2019-03-08T08:17:16.841Z,97858.00
2019-03-08T08:20:16.084Z,97861.16
2019-03-08T08:23:01.870Z,97870.33
2019-03-08T08:25:53.466Z,97875.02
2019-03-08T08:28:49.844Z,97880.53
2019-03-08T08:31:38.813Z,97883.42
2019-03-08T08:34:30.605Z,97889.78
2019-03-08T08:37:22.195Z,97891.40
2019-03-08T08:40:14.107Z,97905.37
2019-03-08T08:43:05.703Z,97900.92
2019-03-08T08:45:45.642Z,97903.69
2019-03-08T08:48:37.247Z,97915.12
2019-03-08T08:51:23.307Z,97917.23
2019-03-08T08:54:14.882Z,97917.67
2019-03-08T08:57:06.464Z,97919.56
2019-03-08T08:59:58.063Z,97924.75
2019-03-08T09:02:49.642Z,97932.33
2019-03-08T09:05:28.398Z,97928.90
2019-03-08T09:08:19.990Z,97928.63
2019-03-08T09:10:57.711Z,97929.73
2019-03-08T09:13:35.544Z,97927.75
2019-03-08T09:16:27.102Z,97923.38
2019-03-08T09:19:06.403Z,97923.16
2019-03-08T09:21:45.198Z,97930.77
2019-03-08T09:24:23.517Z,97929.13
2019-03-08T09:27:15.047Z,97928.14
2019-03-08T09:30:06.631Z,97926.34
2019-03-08T09:32:59.375Z,97928.44
2019-03-08T09:35:51.676Z,97930.48
2019-03-08T09:38:43.334Z,97930.81
2019-03-08T09:41:22.727Z,97936.45
2019-03-08T09:44:16.172Z,97935.81
2019-03-08T09:46:53.233Z,97933.13
2019-03-08T09:49:44.834Z,97937.13
2019-03-08T09:52:32.469Z,97938.04
2019-03-08T09:55:26.511Z,97929.13
2019-03-08T09:58:18.081Z,97927.92
2019-03-08T10:01:16.455Z,97932.16
2019-03-08T10:04:03.134Z,97939.59
2019-03-08T10:06:54.719Z,97938.14
2019-03-08T10:09:46.316Z,97944.04
2019-03-08T10:12:37.870Z,97945.95
2019-03-08T10:15:29.594Z,97952.22
2019-03-08T10:18:21.141Z,97955.98
2019-03-08T10:21:12.683Z,97958.27
2019-03-08T10:24:04.242Z,97957.26
2019-03-08T10:26:45.663Z,97965.26
2019-03-08T10:29:37.222Z,97965.91
2019-03-08T10:32:37.068Z,97971.38
2019-03-08T10:35:24.082Z,97976.77
2019-03-08T10:38:22.413Z,97975.50
2019-03-08T10:41:09.345Z,97975.61
2019-03-08T10:44:08.684Z,97971.31
2019-03-08T10:46:54.764Z,97976.30
2019-03-08T10:49:54.739Z,97971.41
2019-03-08T10:52:39.903Z,97972.64
2019-03-08T10:55:31.489Z,97976.49
2019-03-08T10:58:23.089Z,97971.92
2019-03-08T11:01:14.737Z,97977.40
2019-03-08T11:04:06.315Z,97972.34
2019-03-08T11:06:57.864Z,97966.87
2019-03-08T11:09:49.466Z,97964.09
2019-03-08T11:12:41.019Z,97961.44
2019-03-08T11:15:32.576Z,97966.59
2019-03-08T11:18:24.180Z,97965.41
2019-03-08T11:21:04.549Z,97968.88
2019-03-08T11:23:56.098Z,97978.70
2019-03-08T11:26:47.627Z,97976.66
2019-03-08T11:29:58.635Z,97985.38
2019-03-08T11:32:50.171Z,98003.64
2019-03-08T11:35:41.737Z,98008.86
2019-03-08T11:38:22.776Z,98008.94
2019-03-08T11:41:25.006Z,98003.67
2019-03-08T11:44:16.583Z,98006.07
2019-03-08T11:47:06.023Z,98010.84
2019-03-08T11:49:57.614Z,98016.61
2019-03-08T11:52:49.203Z,98022.04
2019-03-08T11:55:40.755Z,98018.44
2019-03-08T11:58:32.305Z,98016.25
2019-03-08T12:01:36.246Z,98021.88
2019-03-08T12:04:27.847Z,98020.37
2019-03-08T12:07:19.548Z,98003.16
2019-03-08T12:10:11.239Z,98021.39
2019-03-08T12:13:02.927Z,98006.69
2019-03-08T12:15:54.560Z,98013.41
2019-03-08T12:18:46.175Z,98016.14
2019-03-08T12:21:37.830Z,98025.52
2019-03-08T12:24:26.066Z,98015.98
2019-03-08T12:27:17.624Z,98020.07
2019-03-08T12:30:09.250Z,98019.43
2019-03-08T12:33:00.952Z,98020.95
2019-03-08T12:35:52.669Z,98015.63
2019-03-08T12:38:31.070Z,98011.64
2019-03-08T12:41:22.717Z,98014.45
2019-03-08T12:44:14.364Z,98011.03
2019-03-08T12:47:06.015Z,98014.30
2019-03-08T12:49:57.639Z,98017.91
2019-03-08T12:52:49.319Z,98015.48
2019-03-08T12:55:35.688Z,98015.81
2019-03-08T12:58:27.473Z,98021.44
2019-03-08T13:01:05.570Z,98019.05
2019-03-08T13:03:57.193Z,98018.80
2019-03-08T13:06:48.734Z,98026.80
2019-03-08T13:09:40.647Z,98008.80
2019-03-08T13:12:12.685Z,98019.21
2019-03-08T13:14:44.832Z,98013.58
2019-03-08T13:17:16.858Z,98011.98
2019-03-08T13:19:48.868Z,98021.83
2019-03-08T13:22:20.924Z,98019.50
2019-03-08T13:24:52.938Z,98035.84
2019-03-08T13:27:25.465Z,98032.30
2019-03-08T13:29:59.361Z,98039.66
2019-03-08T13:32:31.385Z,98041.34
2019-03-08T13:35:03.694Z,98040.95
2019-03-08T13:37:35.762Z,98034.48
2019-03-08T13:40:08.986Z,98043.34
2019-03-08T13:42:41.068Z,98039.32
2019-03-08T13:45:14.583Z,98038.11
2019-03-08T13:47:46.603Z,98046.58
2019-03-08T13:50:18.624Z,98047.23
2019-03-08T13:52:50.948Z,98048.84
2019-03-08T13:55:22.972Z,98047.45
2019-03-08T13:57:55.005Z,98058.61
2019-03-08T14:00:27.050Z,98060.09
2019-03-08T14:02:59.069Z,98058.48
2019-03-08T14:05:31.116Z,98065.92
2019-03-08T14:08:03.314Z,98066.63
2019-03-08T14:10:35.322Z,98069.85
2019-03-08T14:13:07.414Z,98071.58
2019-03-08T14:15:39.853Z,98060.83
2019-03-08T14:18:11.898Z,98073.91
2019-03-08T14:20:43.982Z,98074.24
2019-03-08T14:23:16.005Z,98075.92
2019-03-08T14:25:48.079Z,98072.53
2019-03-08T14:28:20.129Z,98066.63
2019-03-08T14:31:01.345Z,98077.17
2019-03-08T14:33:34.423Z,98085.12
2019-03-08T14:36:07.370Z,98092.61
2019-03-08T14:38:39.392Z,98096.23
2019-03-08T14:41:35.922Z,98100.97
2019-03-08T14:44:17.309Z,98106.61
2019-03-08T14:46:57.614Z,98115.17
2019-03-08T14:49:29.616Z,98123.27
2019-03-08T14:52:01.685Z,98126.40
2019-03-08T14:54:33.736Z,98136.68
2019-03-08T14:57:09.253Z,98142.20
2019-03-08T14:59:39.762Z,98141.92
2019-03-08T15:02:13.618Z,98140.34
2019-03-08T15:04:45.772Z,98140.34
2019-03-08T15:07:17.874Z,98147.24
2019-03-08T15:09:49.938Z,98149.84
2019-03-08T15:12:22.003Z,98133.49
2019-03-08T15:14:54.393Z,98145.55
2019-03-08T15:17:26.416Z,98139.86
2019-03-08T15:19:58.467Z,98144.81
2019-03-08T15:22:34.023Z,98134.00
2019-03-08T15:25:08.337Z,98134.00
2019-03-08T15:27:39.293Z,98122.19
2019-03-08T15:30:13.060Z,98132.67
2019-03-08T15:32:45.130Z,98124.63
2019-03-08T15:35:17.546Z,98127.08
2019-03-08T15:37:49.597Z,98130.41
2019-03-08T15:40:21.617Z,98123.70
2019-03-08T15:42:53.605Z,98124.17
2019-03-08T15:45:25.681Z,98117.59
2019-03-08T15:47:57.714Z,98121.73
2019-03-08T15:50:29.816Z,98118.11
2019-03-08T15:53:01.861Z,98118.11
2019-03-08T15:55:33.950Z,98128.30
2019-03-08T15:58:06.073Z,98126.47
2019-03-08T16:00:38.231Z,98132.67
2019-03-08T16:03:10.241Z,98121.23
2019-03-08T16:05:42.260Z,98134.39
2019-03-08T16:08:14.591Z,98124.17
2019-03-08T16:10:46.663Z,98124.17
2019-03-08T16:13:18.673Z,98123.78
2019-03-08T16:15:50.769Z,98126.92
2019-03-08T16:18:22.761Z,98130.46
2019-03-08T16:20:54.862Z,98124.47
2019-03-08T16:23:26.884Z,98112.09
2019-03-08T16:25:58.899Z,98116.12
2019-03-08T16:28:30.903Z,98116.12
2019-03-08T16:31:37.838Z,98116.30
2019-03-08T16:34:10.056Z,98112.17
2019-03-08T16:37:01.705Z,98110.18
2019-03-08T16:40:08.673Z,98114.20
2019-03-08T16:43:03.751Z,98110.69
2019-03-08T16:46:01.721Z,98112.68
2019-03-08T16:48:40.269Z,98119.64
2019-03-08T16:51:19.167Z,98129.59
2019-03-08T16:54:06.707Z,98129.59
2019-03-08T16:57:01.116Z,98132.56
2019-03-08T16:59:51.591Z,98138.92
2019-03-08T17:02:46.385Z,98143.36
2019-03-08T17:05:36.705Z,98152.58
2019-03-08T17:08:27.430Z,98161.80
2019-03-08T17:11:19.043Z,98172.09
2019-03-08T17:14:20.032Z,98165.88
2019-03-08T17:17:09.096Z,98176.48
2019-03-08T17:20:03.511Z,98171.45
2019-03-08T17:22:47.977Z,98175.82
2019-03-08T17:25:37.716Z,98182.36
2019-03-08T17:28:28.354Z,98177.64
2019-03-08T17:31:16.648Z,98181.70
2019-03-08T17:34:23.805Z,98185.48
2019-03-08T17:37:11.162Z,98191.01
2019-03-08T17:39:50.753Z,98190.47
2019-03-08T17:42:42.395Z,98191.77
2019-03-08T17:45:27.569Z,98201.11
2019-03-08T17:48:17.271Z,98202.41
2019-03-08T17:51:08.937Z,98209.56
2019-03-08T17:54:07.229Z,98224.06
2019-03-08T17:57:17.083Z,98226.66
2019-03-08T18:00:00.326Z,98223.41
2019-03-08T18:02:50.755Z,98224.69
2019-03-08T18:05:31.157Z,98234.03
2019-03-08T18:08:20.721Z,98238.30
2019-03-08T18:11:04.605Z,98246.58
2019-03-08T18:14:05.103Z,98240.13
2019-03-08T18:16:58.269Z,98238.20
2019-03-08T18:19:49.023Z,98241.41
2019-03-08T18:22:34.220Z,98248.80
2019-03-08T18:25:23.129Z,98252.00
2019-03-08T18:28:13.655Z,98256.28
2019-03-08T18:30:55.792Z,98251.48
2019-03-08T18:33:53.325Z,98246.20
2019-03-08T18:36:37.608Z,98249.41
2019-03-08T18:39:29.275Z,98256.81
2019-03-08T18:42:26.960Z,98267.16
2019-03-08T18:45:28.159Z,98266.18
2019-03-08T18:48:29.044Z,98268.06
2019-03-08T18:51:19.711Z,98266.09
2019-03-08T18:54:10.441Z,98268.89
2019-03-08T18:56:54.751Z,98274.54
2019-03-08T18:59:49.179Z,98273.42
2019-03-08T19:02:39.644Z,98274.79
2019-03-08T19:05:30.625Z,98283.17
2019-03-08T19:08:22.245Z,98284.70
2019-03-08T19:11:09.845Z,98292.72
2019-03-08T19:14:00.204Z,98299.19
2019-03-08T19:16:55.079Z,98297.39
2019-03-08T19:19:43.510Z,98297.92
2019-03-08T19:22:31.848Z,98301.21
2019-03-08T19:25:26.427Z,98305.55
2019-03-08T19:28:30.450Z,98302.52
2019-03-08T19:31:27.898Z,98301.75
2019-03-08T19:34:10.058Z,98298.73
2019-03-08T19:36:58.188Z,98294.04
2019-03-08T19:39:55.845Z,98296.34
2019-03-08T19:42:59.860Z,98300.78
2019-03-08T19:45:39.394Z,98295.85
2019-03-08T19:48:19.235Z,98290.39
2019-03-08T19:51:03.153Z,98286.83
2019-03-08T19:53:54.798Z,98293.70
2019-03-08T19:56:49.317Z,98302.19
2019-03-08T19:59:56.343Z,98296.09
2019-03-08T20:02:42.397Z,98294.29
2019-03-08T20:05:34.076Z,98297.60
2019-03-08T20:08:28.627Z,98298.98
2019-03-08T20:11:27.995Z,98300.53
2019-03-08T20:14:18.456Z,98298.48
2019-03-08T20:16:59.989Z,98298.98
2019-03-08T20:19:50.521Z,98308.93
2019-03-08T20:22:51.427Z,98310.59
2019-03-08T20:25:48.900Z,98312.73
2019-03-08T20:28:39.171Z,98313.62
2019-03-08T20:31:36.966Z,98315.03
2019-03-08T20:34:27.011Z,98316.93
2019-03-08T20:37:31.047Z,98315.52
2019-03-08T20:40:12.423Z,98317.18
2019-03-08T20:42:58.436Z,98314.25
2019-03-08T20:45:52.975Z,98312.73
2019-03-08T20:48:25.046Z,98310.59
2019-03-08T20:50:57.170Z,98317.56
2019-03-08T20:53:29.451Z,98317.03
2019-03-08T20:56:01.516Z,98320.11
2019-03-08T20:58:33.601Z,98317.81
2019-03-08T21:01:05.646Z,98313.77
2019-03-08T21:03:37.684Z,98318.55
2019-03-08T21:06:09.718Z,98321.87
2019-03-08T21:08:41.803Z,98319.33
2019-03-08T21:11:13.903Z,98322.75
2019-03-08T21:13:45.947Z,98321.63
2019-03-08T21:16:18.034Z,98316.79
2019-03-08T21:18:50.081Z,98312.88
2019-03-08T21:21:22.147Z,98315.80
2019-03-08T21:23:54.230Z,98313.75
2019-03-08T21:26:26.600Z,98313.12
2019-03-08T21:28:58.617Z,98318.82
2019-03-08T21:31:30.704Z,98316.92
2019-03-08T21:34:02.782Z,98311.98
2019-03-08T21:36:34.824Z,98311.98
2019-03-08T21:39:06.889Z,98308.28
2019-03-08T21:41:38.994Z,98308.42
2019-03-08T21:44:11.076Z,98306.66
2019-03-08T21:46:43.074Z,98307.15
2019-03-08T21:49:15.097Z,98304.11
2019-03-08T21:51:47.113Z,98308.78
2019-03-08T21:54:19.212Z,98312.73
2019-03-08T21:56:51.219Z,98312.59
2019-03-08T21:59:23.362Z,98305.25
2019-03-08T22:01:55.513Z,98307.89
2019-03-08T22:04:37.942Z,98306.63
2019-03-08T22:07:09.958Z,98308.53
2019-03-08T22:09:50.172Z,98302.59
2019-03-08T22:12:22.207Z,98303.71
2019-03-08T22:14:54.323Z,98301.95
2019-03-08T22:17:26.315Z,98302.83
2019-03-08T22:19:58.412Z,98288.14
2019-03-08T22:22:30.519Z,98292.68
2019-03-08T22:25:02.618Z,98280.02
2019-03-08T22:27:34.660Z,98286.48
2019-03-08T22:30:10.037Z,98277.24
2019-03-08T22:32:42.036Z,98271.89
2019-03-08T22:35:14.082Z,98263.78
2019-03-08T22:37:46.122Z,98265.80
2019-03-08T22:40:18.181Z,98259.98
2019-03-08T22:42:50.197Z,98259.84
2019-03-08T22:45:22.567Z,98260.63
2019-03-08T22:47:54.653Z,98255.31
2019-03-08T22:50:26.827Z,98258.97
2019-03-08T22:52:59.389Z,98262.52
2019-03-08T22:55:31.437Z,98266.34
2019-03-08T22:58:03.514Z,98267.61
2019-03-08T23:00:55.019Z,98260.99
2019-03-08T23:03:27.309Z,98271.52
2019-03-08T23:05:59.411Z,98256.96
2019-03-08T23:08:31.721Z,98253.27
2019-03-08T23:11:03.846Z,98248.08
2019-03-08T23:13:35.867Z,98241.63
2019-03-08T23:16:07.915Z,98237.56
2019-03-08T23:18:39.952Z,98230.59
2019-03-08T23:21:11.967Z,98219.68
2019-03-08T23:23:44.034Z,98220.58
2019-03-08T23:26:16.045Z,98216.77
2019-03-08T23:28:51.507Z,98223.22
2019-03-08T23:31:43.512Z,98220.42
2019-03-08T23:34:15.602Z,98216.00
2019-03-08T23:36:47.611Z,98208.89
2019-03-08T23:39:19.724Z,98214.72
2019-03-08T23:41:51.748Z,98201.91
2019-03-08T23:44:23.964Z,98202.83
2019-03-08T23:46:56.007Z,98197.13
2019-03-08T23:49:28.059Z,98199.92
2019-03-08T23:52:00.079Z,98207.88
2019-03-08T23:54:32.128Z,98206.77
2019-03-08T23:57:06.062Z,98201.32
2019-03-08T23:59:38.066Z,98206.62
